sensor_id;sensor_type;location;lat;lon;timestamp;P1;durP1;ratioP1;P2;durP2;ratioP2
13967;SDS011;39536;52.198;9.920;2022-11-15T00:01:17;11.60;;;10.50;;
13967;SDS011;39536;52.198;9.920;2022-11-15T00:03:44;10.80;;;9.90;;
13967;SDS011;39536;52.198;9.920;2022-11-15T00:06:13;12.67;;;10.57;;
13967;SDS011;39536;52.198;9.920;2022-11-15T00:08:39;10.67;;;9.83;;
13967;SDS011;39536;52.198;9.920;2022-11-15T00:11:06;10.80;;;9.87;;
13967;SDS011;39536;52.198;9.920;2022-11-15T00:13:34;10.63;;;9.77;;
13967;SDS011;39536;52.198;9.920;2022-11-15T00:16:00;10.67;;;9.20;;
13967;SDS011;39536;52.198;9.920;2022-11-15T00:18:28;13.10;;;10.17;;
13967;SDS011;39536;52.198;9.920;2022-11-15T00:20:55;10.10;;;9.30;;
13967;SDS011;39536;52.198;9.920;2022-11-15T00:23:23;10.93;;;10.03;;
13967;SDS011;39536;52.198;9.920;2022-11-15T00:25:55;9.90;;;8.90;;
13967;SDS011;39536;52.198;9.920;2022-11-15T00:28:22;10.53;;;9.60;;
13967;SDS011;39536;52.198;9.920;2022-11-15T00:30:49;11.03;;;9.87;;
13967;SDS011;39536;52.198;9.920;2022-11-15T00:33:15;10.30;;;9.30;;
13967;SDS011;39536;52.198;9.920;2022-11-15T00:35:42;10.23;;;9.27;;
13967;SDS011;39536;52.198;9.920;2022-11-15T00:38:08;11.00;;;9.30;;
13967;SDS011;39536;52.198;9.920;2022-11-15T00:40:36;10.63;;;8.47;;
13967;SDS011;39536;52.198;9.920;2022-11-15T00:43:03;9.73;;;8.73;;
13967;SDS011;39536;52.198;9.920;2022-11-15T00:45:29;8.60;;;7.93;;
13967;SDS011;39536;52.198;9.920;2022-11-15T00:47:56;8.60;;;7.83;;
13967;SDS011;39536;52.198;9.920;2022-11-15T00:50:22;8.73;;;7.93;;
13967;SDS011;39536;52.198;9.920;2022-11-15T00:52:48;7.77;;;7.17;;
13967;SDS011;39536;52.198;9.920;2022-11-15T00:55:15;9.63;;;8.83;;
13967;SDS011;39536;52.198;9.920;2022-11-15T00:57:44;8.73;;;7.27;;
13967;SDS011;39536;52.198;9.920;2022-11-15T01:00:12;9.23;;;8.43;;
13967;SDS011;39536;52.198;9.920;2022-11-15T01:02:39;8.83;;;7.00;;
13967;SDS011;39536;52.198;9.920;2022-11-15T01:05:06;9.83;;;7.57;;
13967;SDS011;39536;52.198;9.920;2022-11-15T01:07:33;8.53;;;7.73;;
13967;SDS011;39536;52.198;9.920;2022-11-15T01:09:59;8.77;;;7.93;;
13967;SDS011;39536;52.198;9.920;2022-11-15T01:12:26;8.97;;;8.17;;
13967;SDS011;39536;52.198;9.920;2022-11-15T01:14:54;8.77;;;7.37;;
13967;SDS011;39536;52.198;9.920;2022-11-15T01:17:20;8.43;;;7.73;;
13967;SDS011;39536;52.198;9.920;2022-11-15T01:19:47;9.37;;;8.30;;
13967;SDS011;39536;52.198;9.920;2022-11-15T01:22:14;8.53;;;7.83;;
13967;SDS011;39536;52.198;9.920;2022-11-15T01:24:41;14.17;;;7.93;;
13967;SDS011;39536;52.198;9.920;2022-11-15T01:27:07;8.57;;;7.80;;
13967;SDS011;39536;52.198;9.920;2022-11-15T01:29:34;7.97;;;7.33;;
13967;SDS011;39536;52.198;9.920;2022-11-15T01:32:02;8.77;;;8.07;;
13967;SDS011;39536;52.198;9.920;2022-11-15T01:34:29;8.13;;;7.43;;
13967;SDS011;39536;52.198;9.920;2022-11-15T01:36:55;8.43;;;7.27;;
13967;SDS011;39536;52.198;9.920;2022-11-15T01:39:22;7.83;;;7.13;;
13967;SDS011;39536;52.198;9.920;2022-11-15T01:41:48;9.53;;;7.97;;
13967;SDS011;39536;52.198;9.920;2022-11-15T01:44:34;8.43;;;7.67;;
13967;SDS011;39536;52.198;9.920;2022-11-15T01:47:07;8.77;;;8.07;;
13967;SDS011;39536;52.198;9.920;2022-11-15T01:49:37;8.97;;;8.27;;
13967;SDS011;39536;52.198;9.920;2022-11-15T01:52:09;8.27;;;7.53;;
13967;SDS011;39536;52.198;9.920;2022-11-15T01:54:38;8.93;;;8.10;;
13967;SDS011;39536;52.198;9.920;2022-11-15T01:57:06;7.90;;;7.40;;
13967;SDS011;39536;52.198;9.920;2022-11-15T01:59:35;8.87;;;8.07;;
13967;SDS011;39536;52.198;9.920;2022-11-15T02:02:04;8.53;;;7.83;;
13967;SDS011;39536;52.198;9.920;2022-11-15T02:04:32;9.97;;;8.77;;
13967;SDS011;39536;52.198;9.920;2022-11-15T02:07:02;12.77;;;8.10;;
13967;SDS011;39536;52.198;9.920;2022-11-15T02:09:30;8.30;;;7.60;;
13967;SDS011;39536;52.198;9.920;2022-11-15T02:11:57;7.83;;;7.13;;
13967;SDS011;39536;52.198;9.920;2022-11-15T02:14:25;7.67;;;7.07;;
13967;SDS011;39536;52.198;9.920;2022-11-15T02:16:56;8.57;;;7.77;;
13967;SDS011;39536;52.198;9.920;2022-11-15T02:19:31;8.97;;;8.07;;
13967;SDS011;39536;52.198;9.920;2022-11-15T02:22:14;9.37;;;8.43;;
13967;SDS011;39536;52.198;9.920;2022-11-15T02:25:08;7.80;;;7.20;;
13967;SDS011;39536;52.198;9.920;2022-11-15T02:28:10;7.47;;;6.80;;
13967;SDS011;39536;52.198;9.920;2022-11-15T02:30:49;9.53;;;7.73;;
13967;SDS011;39536;52.198;9.920;2022-11-15T02:33:24;9.03;;;8.03;;
13967;SDS011;39536;52.198;9.920;2022-11-15T02:35:59;7.83;;;7.13;;
13967;SDS011;39536;52.198;9.920;2022-11-15T02:38:29;8.27;;;7.50;;
13967;SDS011;39536;52.198;9.920;2022-11-15T02:41:01;7.70;;;6.87;;
13967;SDS011;39536;52.198;9.920;2022-11-15T02:43:33;7.00;;;6.50;;
13967;SDS011;39536;52.198;9.920;2022-11-15T02:46:23;8.07;;;7.10;;
13967;SDS011;39536;52.198;9.920;2022-11-15T02:49:10;8.23;;;7.43;;
13967;SDS011;39536;52.198;9.920;2022-11-15T02:51:38;7.37;;;6.87;;
13967;SDS011;39536;52.198;9.920;2022-11-15T02:54:07;7.00;;;6.50;;
13967;SDS011;39536;52.198;9.920;2022-11-15T02:56:38;7.73;;;7.03;;
13967;SDS011;39536;52.198;9.920;2022-11-15T02:59:08;6.77;;;6.13;;
13967;SDS011;39536;52.198;9.920;2022-11-15T03:01:51;9.07;;;7.43;;
13967;SDS011;39536;52.198;9.920;2022-11-15T03:04:32;6.97;;;6.27;;
13967;SDS011;39536;52.198;9.920;2022-11-15T03:07:10;7.27;;;6.60;;
13967;SDS011;39536;52.198;9.920;2022-11-15T03:09:40;7.10;;;6.50;;
13967;SDS011;39536;52.198;9.920;2022-11-15T03:12:14;7.47;;;6.77;;
13967;SDS011;39536;52.198;9.920;2022-11-15T03:14:50;6.77;;;6.10;;
13967;SDS011;39536;52.198;9.920;2022-11-15T03:17:23;7.13;;;6.10;;
13967;SDS011;39536;52.198;9.920;2022-11-15T03:19:54;6.40;;;5.80;;
13967;SDS011;39536;52.198;9.920;2022-11-15T03:22:23;6.30;;;5.70;;
13967;SDS011;39536;52.198;9.920;2022-11-15T03:24:53;6.37;;;5.90;;
13967;SDS011;39536;52.198;9.920;2022-11-15T03:27:24;8.63;;;5.43;;
13967;SDS011;39536;52.198;9.920;2022-11-15T03:29:54;6.70;;;6.00;;
13967;SDS011;39536;52.198;9.920;2022-11-15T03:32:28;7.63;;;5.77;;
13967;SDS011;39536;52.198;9.920;2022-11-15T03:34:57;6.63;;;6.23;;
13967;SDS011;39536;52.198;9.920;2022-11-15T03:37:29;5.90;;;5.30;;
13967;SDS011;39536;52.198;9.920;2022-11-15T03:40:00;6.30;;;5.73;;
13967;SDS011;39536;52.198;9.920;2022-11-15T03:42:30;7.73;;;5.90;;
13967;SDS011;39536;52.198;9.920;2022-11-15T03:45:03;6.63;;;5.97;;
13967;SDS011;39536;52.198;9.920;2022-11-15T03:47:41;6.30;;;5.90;;
13967;SDS011;39536;52.198;9.920;2022-11-15T03:50:11;7.23;;;6.53;;
13967;SDS011;39536;52.198;9.920;2022-11-15T03:52:40;6.50;;;5.93;;
13967;SDS011;39536;52.198;9.920;2022-11-15T03:55:08;7.13;;;6.43;;
13967;SDS011;39536;52.198;9.920;2022-11-15T03:57:37;7.47;;;6.23;;
13967;SDS011;39536;52.198;9.920;2022-11-15T04:00:04;7.60;;;6.50;;
13967;SDS011;39536;52.198;9.920;2022-11-15T04:02:31;6.40;;;5.90;;
13967;SDS011;39536;52.198;9.920;2022-11-15T04:04:59;6.93;;;6.33;;
13967;SDS011;39536;52.198;9.920;2022-11-15T04:07:26;7.17;;;6.57;;
13967;SDS011;39536;52.198;9.920;2022-11-15T04:09:52;7.50;;;6.80;;
13967;SDS011;39536;52.198;9.920;2022-11-15T04:12:28;6.80;;;6.20;;
13967;SDS011;39536;52.198;9.920;2022-11-15T04:14:58;7.37;;;6.63;;
13967;SDS011;39536;52.198;9.920;2022-11-15T04:17:35;6.83;;;6.23;;
13967;SDS011;39536;52.198;9.920;2022-11-15T04:20:06;8.70;;;6.10;;
13967;SDS011;39536;52.198;9.920;2022-11-15T04:22:52;7.40;;;6.30;;
13967;SDS011;39536;52.198;9.920;2022-11-15T04:25:37;7.87;;;6.13;;
13967;SDS011;39536;52.198;9.920;2022-11-15T04:28:03;7.37;;;6.67;;
13967;SDS011;39536;52.198;9.920;2022-11-15T04:30:30;5.93;;;5.43;;
13967;SDS011;39536;52.198;9.920;2022-11-15T04:32:56;7.83;;;7.13;;
13967;SDS011;39536;52.198;9.920;2022-11-15T04:35:24;12.63;;;9.57;;
13967;SDS011;39536;52.198;9.920;2022-11-15T04:37:51;7.23;;;6.50;;
13967;SDS011;39536;52.198;9.920;2022-11-15T04:40:17;6.33;;;5.83;;
13967;SDS011;39536;52.198;9.920;2022-11-15T04:42:44;7.03;;;6.40;;
13967;SDS011;39536;52.198;9.920;2022-11-15T04:45:11;7.00;;;5.53;;
13967;SDS011;39536;52.198;9.920;2022-11-15T04:47:37;6.50;;;5.90;;
13967;SDS011;39536;52.198;9.920;2022-11-15T04:50:04;6.23;;;5.73;;
13967;SDS011;39536;52.198;9.920;2022-11-15T04:52:33;6.00;;;5.50;;
13967;SDS011;39536;52.198;9.920;2022-11-15T04:54:59;7.00;;;6.07;;
13967;SDS011;39536;52.198;9.920;2022-11-15T04:57:26;5.87;;;5.37;;
13967;SDS011;39536;52.198;9.920;2022-11-15T04:59:52;5.90;;;5.40;;
13967;SDS011;39536;52.198;9.920;2022-11-15T05:02:19;5.83;;;5.40;;
13967;SDS011;39536;52.198;9.920;2022-11-15T05:04:45;5.50;;;5.07;;
13967;SDS011;39536;52.198;9.920;2022-11-15T05:07:11;5.83;;;5.30;;
13967;SDS011;39536;52.198;9.920;2022-11-15T05:09:39;5.43;;;5.00;;
13967;SDS011;39536;52.198;9.920;2022-11-15T05:12:05;7.13;;;5.10;;
13967;SDS011;39536;52.198;9.920;2022-11-15T05:14:32;7.73;;;5.50;;
13967;SDS011;39536;52.198;9.920;2022-11-15T05:16:59;5.53;;;5.03;;
13967;SDS011;39536;52.198;9.920;2022-11-15T05:19:26;6.63;;;5.90;;
13967;SDS011;39536;52.198;9.920;2022-11-15T05:21:52;5.30;;;4.90;;
13967;SDS011;39536;52.198;9.920;2022-11-15T05:24:19;7.97;;;6.17;;
13967;SDS011;39536;52.198;9.920;2022-11-15T05:26:47;5.93;;;5.47;;
13967;SDS011;39536;52.198;9.920;2022-11-15T05:29:13;6.47;;;5.80;;
13967;SDS011;39536;52.198;9.920;2022-11-15T05:31:40;5.93;;;5.50;;
13967;SDS011;39536;52.198;9.920;2022-11-15T05:34:07;5.77;;;5.17;;
13967;SDS011;39536;52.198;9.920;2022-11-15T05:36:34;5.90;;;5.40;;
13967;SDS011;39536;52.198;9.920;2022-11-15T05:39:03;5.90;;;5.40;;
13967;SDS011;39536;52.198;9.920;2022-11-15T05:41:31;6.00;;;5.50;;
13967;SDS011;39536;52.198;9.920;2022-11-15T05:44:02;5.83;;;5.23;;
13967;SDS011;39536;52.198;9.920;2022-11-15T05:46:32;5.77;;;5.37;;
13967;SDS011;39536;52.198;9.920;2022-11-15T05:49:00;7.37;;;5.30;;
13967;SDS011;39536;52.198;9.920;2022-11-15T05:51:27;6.23;;;5.73;;
13967;SDS011;39536;52.198;9.920;2022-11-15T05:53:55;6.63;;;5.93;;
13967;SDS011;39536;52.198;9.920;2022-11-15T05:56:24;11.57;;;6.40;;
13967;SDS011;39536;52.198;9.920;2022-11-15T05:58:51;6.57;;;6.07;;
13967;SDS011;39536;52.198;9.920;2022-11-15T06:01:20;7.10;;;5.90;;
13967;SDS011;39536;52.198;9.920;2022-11-15T06:03:47;9.30;;;6.00;;
13967;SDS011;39536;52.198;9.920;2022-11-15T06:06:14;6.30;;;5.80;;
13967;SDS011;39536;52.198;9.920;2022-11-15T06:08:41;7.07;;;6.47;;
13967;SDS011;39536;52.198;9.920;2022-11-15T06:11:07;6.47;;;5.97;;
13967;SDS011;39536;52.198;9.920;2022-11-15T06:13:34;6.93;;;6.30;;
13967;SDS011;39536;52.198;9.920;2022-11-15T06:16:00;7.30;;;6.70;;
13967;SDS011;39536;52.198;9.920;2022-11-15T06:18:31;10.70;;;6.60;;
13967;SDS011;39536;52.198;9.920;2022-11-15T06:20:59;8.03;;;7.00;;
13967;SDS011;39536;52.198;9.920;2022-11-15T06:23:26;7.80;;;6.40;;
13967;SDS011;39536;52.198;9.920;2022-11-15T06:25:53;9.37;;;6.37;;
13967;SDS011;39536;52.198;9.920;2022-11-15T06:28:24;14.77;;;7.43;;
13967;SDS011;39536;52.198;9.920;2022-11-15T06:30:50;8.80;;;7.90;;
13967;SDS011;39536;52.198;9.920;2022-11-15T06:33:17;11.93;;;7.37;;
13967;SDS011;39536;52.198;9.920;2022-11-15T06:35:45;8.43;;;7.70;;
13967;SDS011;39536;52.198;9.920;2022-11-15T06:38:12;7.60;;;6.90;;
13967;SDS011;39536;52.198;9.920;2022-11-15T06:40:39;11.93;;;6.67;;
13967;SDS011;39536;52.198;9.920;2022-11-15T06:43:06;6.30;;;5.87;;
13967;SDS011;39536;52.198;9.920;2022-11-15T06:45:33;6.07;;;5.57;;
13967;SDS011;39536;52.198;9.920;2022-11-15T06:47:59;6.13;;;5.57;;
13967;SDS011;39536;52.198;9.920;2022-11-15T06:50:26;7.73;;;6.00;;
13967;SDS011;39536;52.198;9.920;2022-11-15T06:52:55;8.27;;;6.23;;
13967;SDS011;39536;52.198;9.920;2022-11-15T06:55:27;7.90;;;6.00;;
13967;SDS011;39536;52.198;9.920;2022-11-15T06:57:53;7.37;;;5.67;;
13967;SDS011;39536;52.198;9.920;2022-11-15T07:00:20;6.17;;;5.57;;
13967;SDS011;39536;52.198;9.920;2022-11-15T07:02:47;11.67;;;6.83;;
13967;SDS011;39536;52.198;9.920;2022-11-15T07:05:15;6.60;;;6.07;;
13967;SDS011;39536;52.198;9.920;2022-11-15T07:07:50;8.13;;;5.50;;
13967;SDS011;39536;52.198;9.920;2022-11-15T07:10:18;6.53;;;6.03;;
13967;SDS011;39536;52.198;9.920;2022-11-15T07:12:46;6.83;;;5.83;;
13967;SDS011;39536;52.198;9.920;2022-11-15T07:15:13;7.67;;;6.97;;
13967;SDS011;39536;52.198;9.920;2022-11-15T07:17:40;8.37;;;5.87;;
13967;SDS011;39536;52.198;9.920;2022-11-15T07:20:07;7.20;;;6.60;;
13967;SDS011;39536;52.198;9.920;2022-11-15T07:22:34;8.90;;;8.10;;
13967;SDS011;39536;52.198;9.920;2022-11-15T07:25:00;9.27;;;8.37;;
13967;SDS011;39536;52.198;9.920;2022-11-15T07:27:28;10.60;;;9.60;;
13967;SDS011;39536;52.198;9.920;2022-11-15T07:29:55;7.53;;;6.93;;
13967;SDS011;39536;52.198;9.920;2022-11-15T07:32:21;6.50;;;6.00;;
13967;SDS011;39536;52.198;9.920;2022-11-15T07:34:48;8.00;;;7.10;;
13967;SDS011;39536;52.198;9.920;2022-11-15T07:37:14;7.30;;;6.70;;
13967;SDS011;39536;52.198;9.920;2022-11-15T07:39:41;7.40;;;6.80;;
13967;SDS011;39536;52.198;9.920;2022-11-15T07:42:08;7.30;;;6.23;;
13967;SDS011;39536;52.198;9.920;2022-11-15T07:44:54;6.30;;;5.70;;
13967;SDS011;39536;52.198;9.920;2022-11-15T07:47:20;7.17;;;5.97;;
13967;SDS011;39536;52.198;9.920;2022-11-15T07:49:47;8.40;;;7.20;;
13967;SDS011;39536;52.198;9.920;2022-11-15T07:52:13;7.50;;;6.40;;
13967;SDS011;39536;52.198;9.920;2022-11-15T07:54:40;9.40;;;7.23;;
13967;SDS011;39536;52.198;9.920;2022-11-15T07:57:07;7.90;;;7.10;;
13967;SDS011;39536;52.198;9.920;2022-11-15T07:59:34;7.53;;;6.90;;
13967;SDS011;39536;52.198;9.920;2022-11-15T08:02:02;8.97;;;7.27;;
13967;SDS011;39536;52.198;9.920;2022-11-15T08:04:29;8.33;;;6.83;;
13967;SDS011;39536;52.198;9.920;2022-11-15T08:06:55;8.37;;;6.73;;
13967;SDS011;39536;52.198;9.920;2022-11-15T08:09:22;7.83;;;6.30;;
13967;SDS011;39536;52.198;9.920;2022-11-15T08:11:48;6.90;;;5.60;;
13967;SDS011;39536;52.198;9.920;2022-11-15T08:14:15;6.73;;;6.23;;
13967;SDS011;39536;52.198;9.920;2022-11-15T08:16:42;6.77;;;6.13;;
13967;SDS011;39536;52.198;9.920;2022-11-15T08:19:09;7.20;;;6.50;;
13967;SDS011;39536;52.198;9.920;2022-11-15T08:21:36;6.50;;;5.90;;
13967;SDS011;39536;52.198;9.920;2022-11-15T08:24:03;6.13;;;5.63;;
13967;SDS011;39536;52.198;9.920;2022-11-15T08:26:30;6.40;;;5.80;;
13967;SDS011;39536;52.198;9.920;2022-11-15T08:28:56;6.63;;;5.37;;
13967;SDS011;39536;52.198;9.920;2022-11-15T08:31:23;5.93;;;5.50;;
13967;SDS011;39536;52.198;9.920;2022-11-15T08:33:49;5.17;;;4.67;;
13967;SDS011;39536;52.198;9.920;2022-11-15T08:36:17;5.50;;;5.10;;
13967;SDS011;39536;52.198;9.920;2022-11-15T08:38:44;5.43;;;5.03;;
13967;SDS011;39536;52.198;9.920;2022-11-15T08:41:14;5.67;;;4.60;;
13967;SDS011;39536;52.198;9.920;2022-11-15T08:43:48;5.03;;;4.63;;
13967;SDS011;39536;52.198;9.920;2022-11-15T08:46:14;4.40;;;4.03;;
13967;SDS011;39536;52.198;9.920;2022-11-15T08:48:41;5.27;;;4.67;;
13967;SDS011;39536;52.198;9.920;2022-11-15T08:51:07;6.43;;;4.70;;
13967;SDS011;39536;52.198;9.920;2022-11-15T08:53:35;5.27;;;4.43;;
13967;SDS011;39536;52.198;9.920;2022-11-15T08:56:02;5.83;;;4.50;;
13967;SDS011;39536;52.198;9.920;2022-11-15T08:58:32;5.40;;;4.80;;
13967;SDS011;39536;52.198;9.920;2022-11-15T09:00:59;4.97;;;4.50;;
13967;SDS011;39536;52.198;9.920;2022-11-15T09:03:25;4.80;;;4.40;;
13967;SDS011;39536;52.198;9.920;2022-11-15T09:05:54;4.00;;;3.70;;
13967;SDS011;39536;52.198;9.920;2022-11-15T09:08:20;4.87;;;4.40;;
13967;SDS011;39536;52.198;9.920;2022-11-15T09:10:48;4.53;;;4.13;;
13967;SDS011;39536;52.198;9.920;2022-11-15T09:13:15;5.10;;;4.70;;
13967;SDS011;39536;52.198;9.920;2022-11-15T09:15:42;5.07;;;4.67;;
13967;SDS011;39536;52.198;9.920;2022-11-15T09:18:09;4.73;;;4.40;;
13967;SDS011;39536;52.198;9.920;2022-11-15T09:20:35;4.53;;;4.20;;
13967;SDS011;39536;52.198;9.920;2022-11-15T09:23:02;5.30;;;4.80;;
13967;SDS011;39536;52.198;9.920;2022-11-15T09:25:30;4.50;;;4.10;;
13967;SDS011;39536;52.198;9.920;2022-11-15T09:27:58;4.47;;;4.17;;
13967;SDS011;39536;52.198;9.920;2022-11-15T09:30:25;4.77;;;4.23;;
13967;SDS011;39536;52.198;9.920;2022-11-15T09:32:51;5.53;;;4.53;;
13967;SDS011;39536;52.198;9.920;2022-11-15T09:35:18;7.37;;;4.83;;
13967;SDS011;39536;52.198;9.920;2022-11-15T09:40:12;4.23;;;3.90;;
13967;SDS011;39536;52.198;9.920;2022-11-15T09:42:46;5.00;;;4.37;;
13967;SDS011;39536;52.198;9.920;2022-11-15T09:45:24;5.37;;;4.30;;
13967;SDS011;39536;52.198;9.920;2022-11-15T09:48:00;5.83;;;4.87;;
13967;SDS011;39536;52.198;9.920;2022-11-15T09:50:46;5.17;;;4.63;;
13967;SDS011;39536;52.198;9.920;2022-11-15T09:53:20;4.57;;;4.17;;
13967;SDS011;39536;52.198;9.920;2022-11-15T09:55:51;4.47;;;4.07;;
13967;SDS011;39536;52.198;9.920;2022-11-15T09:58:25;4.83;;;4.40;;
13967;SDS011;39536;52.198;9.920;2022-11-15T10:00:57;4.73;;;4.23;;
13967;SDS011;39536;52.198;9.920;2022-11-15T10:03:30;4.27;;;3.97;;
13967;SDS011;39536;52.198;9.920;2022-11-15T10:06:01;5.40;;;4.37;;
13967;SDS011;39536;52.198;9.920;2022-11-15T10:11:23;5.03;;;4.63;;
13967;SDS011;39536;52.198;9.920;2022-11-15T10:13:52;5.67;;;5.10;;
13967;SDS011;39536;52.198;9.920;2022-11-15T10:16:34;5.23;;;4.73;;
13967;SDS011;39536;52.198;9.920;2022-11-15T10:19:19;7.00;;;4.87;;
13967;SDS011;39536;52.198;9.920;2022-11-15T10:21:53;5.17;;;4.70;;
13967;SDS011;39536;52.198;9.920;2022-11-15T10:24:27;4.90;;;4.50;;
13967;SDS011;39536;52.198;9.920;2022-11-15T10:26:58;4.43;;;4.03;;
13967;SDS011;39536;52.198;9.920;2022-11-15T10:29:24;4.73;;;4.40;;
13967;SDS011;39536;52.198;9.920;2022-11-15T10:31:52;4.20;;;3.90;;
13967;SDS011;39536;52.198;9.920;2022-11-15T10:34:20;5.93;;;4.37;;
13967;SDS011;39536;52.198;9.920;2022-11-15T10:36:53;4.63;;;4.13;;
13967;SDS011;39536;52.198;9.920;2022-11-15T10:39:21;3.50;;;3.30;;
13967;SDS011;39536;52.198;9.920;2022-11-15T10:41:48;4.87;;;4.47;;
13967;SDS011;39536;52.198;9.920;2022-11-15T10:44:19;4.50;;;4.10;;
13967;SDS011;39536;52.198;9.920;2022-11-15T10:50:04;6.80;;;4.30;;
13967;SDS011;39536;52.198;9.920;2022-11-15T10:52:50;5.43;;;3.90;;
13967;SDS011;39536;52.198;9.920;2022-11-15T10:55:22;4.37;;;3.97;;
13967;SDS011;39536;52.198;9.920;2022-11-15T10:57:53;4.60;;;4.30;;
13967;SDS011;39536;52.198;9.920;2022-11-15T11:00:30;4.30;;;3.90;;
13967;SDS011;39536;52.198;9.920;2022-11-15T11:03:00;4.67;;;4.27;;
13967;SDS011;39536;52.198;9.920;2022-11-15T11:05:30;4.53;;;4.13;;
13967;SDS011;39536;52.198;9.920;2022-11-15T11:07:59;4.60;;;3.60;;
13967;SDS011;39536;52.198;9.920;2022-11-15T11:10:27;4.63;;;3.93;;
13967;SDS011;39536;52.198;9.920;2022-11-15T11:12:54;4.00;;;3.70;;
13967;SDS011;39536;52.198;9.920;2022-11-15T11:15:21;4.23;;;3.83;;
13967;SDS011;39536;52.198;9.920;2022-11-15T11:17:57;4.57;;;3.53;;
13967;SDS011;39536;52.198;9.920;2022-11-15T11:20:33;4.27;;;3.90;;
13967;SDS011;39536;52.198;9.920;2022-11-15T11:23:13;5.17;;;4.00;;
13967;SDS011;39536;52.198;9.920;2022-11-15T11:25:50;5.47;;;4.40;;
13967;SDS011;39536;52.198;9.920;2022-11-15T11:28:32;4.40;;;4.07;;
13967;SDS011;39536;52.198;9.920;2022-11-15T11:31:10;4.37;;;3.97;;
13967;SDS011;39536;52.198;9.920;2022-11-15T11:33:44;3.93;;;3.63;;
13967;SDS011;39536;52.198;9.920;2022-11-15T11:36:25;4.40;;;4.10;;
13967;SDS011;39536;52.198;9.920;2022-11-15T11:39:02;4.83;;;4.43;;
13967;SDS011;39536;52.198;9.920;2022-11-15T11:41:46;4.97;;;3.77;;
13967;SDS011;39536;52.198;9.920;2022-11-15T11:44:30;3.77;;;3.53;;
13967;SDS011;39536;52.198;9.920;2022-11-15T11:47:03;4.53;;;4.13;;
13967;SDS011;39536;52.198;9.920;2022-11-15T11:49:37;4.90;;;4.50;;
13967;SDS011;39536;52.198;9.920;2022-11-15T11:52:12;4.10;;;3.80;;
13967;SDS011;39536;52.198;9.920;2022-11-15T11:54:45;4.63;;;4.23;;
13967;SDS011;39536;52.198;9.920;2022-11-15T11:57:23;4.30;;;4.00;;
13967;SDS011;39536;52.198;9.920;2022-11-15T12:00:00;5.13;;;4.20;;
13967;SDS011;39536;52.198;9.920;2022-11-15T12:02:31;4.60;;;4.20;;
13967;SDS011;39536;52.198;9.920;2022-11-15T12:05:04;4.23;;;3.93;;
13967;SDS011;39536;52.198;9.920;2022-11-15T12:07:40;4.27;;;3.87;;
13967;SDS011;39536;52.198;9.920;2022-11-15T12:10:19;4.40;;;4.00;;
13967;SDS011;39536;52.198;9.920;2022-11-15T12:12:52;5.87;;;4.40;;
13967;SDS011;39536;52.198;9.920;2022-11-15T12:15:26;4.50;;;4.10;;
13967;SDS011;39536;52.198;9.920;2022-11-15T12:17:55;4.53;;;4.13;;
13967;SDS011;39536;52.198;9.920;2022-11-15T12:20:25;4.27;;;3.87;;
13967;SDS011;39536;52.198;9.920;2022-11-15T12:22:57;4.20;;;3.90;;
13967;SDS011;39536;52.198;9.920;2022-11-15T12:25:28;4.40;;;4.00;;
13967;SDS011;39536;52.198;9.920;2022-11-15T12:28:00;3.87;;;3.67;;
13967;SDS011;39536;52.198;9.920;2022-11-15T12:30:40;4.47;;;4.17;;
13967;SDS011;39536;52.198;9.920;2022-11-15T12:35:59;6.07;;;4.07;;
13967;SDS011;39536;52.198;9.920;2022-11-15T12:41:19;4.70;;;4.30;;
13967;SDS011;39536;52.198;9.920;2022-11-15T12:43:47;4.20;;;3.90;;
13967;SDS011;39536;52.198;9.920;2022-11-15T12:46:22;4.70;;;3.97;;
13967;SDS011;39536;52.198;9.920;2022-11-15T12:49:10;3.83;;;3.53;;
13967;SDS011;39536;52.198;9.920;2022-11-15T12:52:07;4.30;;;3.83;;
13967;SDS011;39536;52.198;9.920;2022-11-15T13:00:52;3.73;;;3.43;;
13967;SDS011;39536;52.198;9.920;2022-11-15T13:08:58;4.13;;;3.83;;
13967;SDS011;39536;52.198;9.920;2022-11-15T13:17:32;4.27;;;3.97;;
13967;SDS011;39536;52.198;9.920;2022-11-15T13:20:21;17.60;;;5.20;;
13967;SDS011;39536;52.198;9.920;2022-11-15T13:23:02;5.63;;;3.70;;
13967;SDS011;39536;52.198;9.920;2022-11-15T13:28:27;3.47;;;3.13;;
13967;SDS011;39536;52.198;9.920;2022-11-15T13:30:58;3.87;;;3.57;;
13967;SDS011;39536;52.198;9.920;2022-11-15T13:33:29;4.00;;;3.60;;
13967;SDS011;39536;52.198;9.920;2022-11-15T13:35:58;3.93;;;3.37;;
13967;SDS011;39536;52.198;9.920;2022-11-15T13:38:27;5.53;;;3.70;;
13967;SDS011;39536;52.198;9.920;2022-11-15T13:40:55;4.00;;;3.70;;
13967;SDS011;39536;52.198;9.920;2022-11-15T13:43:26;3.77;;;3.37;;
13967;SDS011;39536;52.198;9.920;2022-11-15T13:46:10;5.87;;;3.77;;
13967;SDS011;39536;52.198;9.920;2022-11-15T13:48:40;3.30;;;3.10;;
13967;SDS011;39536;52.198;9.920;2022-11-15T13:51:12;3.20;;;2.97;;
13967;SDS011;39536;52.198;9.920;2022-11-15T13:53:44;4.47;;;3.60;;
13967;SDS011;39536;52.198;9.920;2022-11-15T13:56:14;3.13;;;2.93;;
13967;SDS011;39536;52.198;9.920;2022-11-15T13:58:42;5.73;;;3.03;;
13967;SDS011;39536;52.198;9.920;2022-11-15T14:01:13;3.50;;;3.20;;
13967;SDS011;39536;52.198;9.920;2022-11-15T14:03:48;3.27;;;3.07;;
13967;SDS011;39536;52.198;9.920;2022-11-15T14:06:19;3.27;;;2.97;;
13967;SDS011;39536;52.198;9.920;2022-11-15T14:08:58;4.57;;;3.50;;
13967;SDS011;39536;52.198;9.920;2022-11-15T14:11:48;3.77;;;3.30;;
13967;SDS011;39536;52.198;9.920;2022-11-15T14:14:15;3.47;;;3.17;;
13967;SDS011;39536;52.198;9.920;2022-11-15T14:16:43;3.87;;;3.10;;
13967;SDS011;39536;52.198;9.920;2022-11-15T14:19:13;3.23;;;3.07;;
13967;SDS011;39536;52.198;9.920;2022-11-15T14:22:17;4.93;;;3.80;;
13967;SDS011;39536;52.198;9.920;2022-11-15T14:24:47;3.87;;;3.57;;
13967;SDS011;39536;52.198;9.920;2022-11-15T14:27:29;4.50;;;4.10;;
13967;SDS011;39536;52.198;9.920;2022-11-15T14:29:55;3.33;;;3.13;;
13967;SDS011;39536;52.198;9.920;2022-11-15T14:32:23;4.20;;;3.70;;
13967;SDS011;39536;52.198;9.920;2022-11-15T14:34:55;3.77;;;3.47;;
13967;SDS011;39536;52.198;9.920;2022-11-15T14:37:23;3.73;;;3.43;;
13967;SDS011;39536;52.198;9.920;2022-11-15T14:39:52;3.60;;;3.30;;
13967;SDS011;39536;52.198;9.920;2022-11-15T14:42:19;6.00;;;4.33;;
13967;SDS011;39536;52.198;9.920;2022-11-15T14:44:47;4.87;;;3.80;;
13967;SDS011;39536;52.198;9.920;2022-11-15T14:47:14;4.03;;;3.67;;
13967;SDS011;39536;52.198;9.920;2022-11-15T14:49:41;3.87;;;3.33;;
13967;SDS011;39536;52.198;9.920;2022-11-15T14:52:16;4.27;;;3.67;;
13967;SDS011;39536;52.198;9.920;2022-11-15T14:54:49;4.33;;;3.57;;
13967;SDS011;39536;52.198;9.920;2022-11-15T14:57:16;4.23;;;3.60;;
13967;SDS011;39536;52.198;9.920;2022-11-15T14:59:43;4.83;;;4.00;;
13967;SDS011;39536;52.198;9.920;2022-11-15T15:02:11;6.27;;;3.87;;
13967;SDS011;39536;52.198;9.920;2022-11-15T15:04:42;4.40;;;4.10;;
13967;SDS011;39536;52.198;9.920;2022-11-15T15:07:09;6.60;;;6.00;;
13967;SDS011;39536;52.198;9.920;2022-11-15T15:09:37;7.87;;;6.30;;
13967;SDS011;39536;52.198;9.920;2022-11-15T15:12:04;5.43;;;3.57;;
13967;SDS011;39536;52.198;9.920;2022-11-15T15:14:31;4.27;;;3.97;;
13967;SDS011;39536;52.198;9.920;2022-11-15T15:16:58;4.23;;;3.90;;
13967;SDS011;39536;52.198;9.920;2022-11-15T15:19:25;3.83;;;3.53;;
13967;SDS011;39536;52.198;9.920;2022-11-15T15:21:51;6.13;;;4.03;;
13967;SDS011;39536;52.198;9.920;2022-11-15T15:24:18;3.80;;;3.30;;
13967;SDS011;39536;52.198;9.920;2022-11-15T15:26:49;4.13;;;3.80;;
13967;SDS011;39536;52.198;9.920;2022-11-15T15:29:15;4.00;;;3.63;;
13967;SDS011;39536;52.198;9.920;2022-11-15T15:31:42;4.60;;;3.60;;
13967;SDS011;39536;52.198;9.920;2022-11-15T15:34:09;3.80;;;3.50;;
13967;SDS011;39536;52.198;9.920;2022-11-15T15:36:36;7.03;;;4.07;;
13967;SDS011;39536;52.198;9.920;2022-11-15T15:39:03;4.03;;;3.73;;